Time;durP1;ratioP1;P1;durP2;ratioP2;P2;SDS_P1;SDS_P2;PMS_P1;PMS_P2;Temp;Humidity;BMP_temperature;BMP_pressure;BME280_temperature;BME280_humidity;BME280_pressure;Samples;Min_cycle;Max_cycle;Signal;HPM_P1;HPM_P2
2022/08/01 00:00:26;;;;;;;7.88;3.70;;;18.40;99.90;;;;;;5026636;28;20049;-74
2022/08/01 00:02:51;;;;;;;6.00;3.08;;;18.40;99.90;;;;;;5027292;28;20056;-74
2022/08/01 00:05:17;;;;;;;5.97;3.20;;;18.40;99.90;;;;;;5024858;28;20041;-74
2022/08/01 00:07:43;;;;;;;5.10;3.70;;;18.40;99.90;;;;;;5026830;28;20049;-74
2022/08/01 00:10:12;;;;;;;5.32;3.80;;;18.30;99.90;;;;;;5025660;28;20046;-73
2022/08/01 00:12:39;;;;;;;4.10;3.15;;;18.30;99.90;;;;;;5030848;28;20521;-73
2022/08/01 00:15:07;;;;;;;7.85;3.85;;;18.30;99.90;;;;;;5024177;28;20048;-73
2022/08/01 00:17:32;;;;;;;6.93;3.15;;;18.30;99.90;;;;;;5025869;28;20037;-75
2022/08/01 00:19:58;;;;;;;6.55;3.45;;;18.30;99.90;;;;;;5027297;28;20527;-73
2022/08/01 00:22:24;;;;;;;6.63;3.60;;;18.20;99.90;;;;;;5025673;28;20491;-73
2022/08/01 00:24:49;;;;;;;8.10;3.58;;;18.20;99.90;;;;;;5029350;28;20468;-73
2022/08/01 00:27:15;;;;;;;6.97;3.45;;;18.20;99.90;;;;;;5023502;28;20060;-73
2022/08/01 00:29:41;;;;;;;7.53;3.55;;;18.10;99.90;;;;;;5025659;28;20073;-74
2022/08/01 00:32:07;;;;;;;7.93;3.72;;;18.20;99.90;;;;;;5026170;28;20148;-73
2022/08/01 00:34:33;;;;;;;8.73;3.95;;;18.20;99.90;;;;;;5023818;28;20135;-74
2022/08/01 00:36:59;;;;;;;12.25;4.40;;;18.10;99.90;;;;;;5025599;28;20517;-73
2022/08/01 00:39:24;;;;;;;10.80;4.60;;;18.10;99.90;;;;;;5022383;28;20125;-74
2022/08/01 00:41:50;;;;;;;10.30;4.57;;;18.10;99.90;;;;;;5029280;28;20087;-74
2022/08/01 00:44:16;;;;;;;6.95;3.75;;;18.00;99.90;;;;;;5026413;28;20059;-74
2022/08/01 00:46:42;;;;;;;7.30;4.13;;;18.00;99.90;;;;;;5027591;28;20156;-74
2022/08/01 00:49:07;;;;;;;7.65;3.67;;;18.00;99.90;;;;;;5025966;28;20100;-73
2022/08/01 00:51:33;;;;;;;7.30;4.18;;;18.00;99.90;;;;;;5027623;28;20055;-73
2022/08/01 00:54:00;;;;;;;12.73;3.72;;;18.00;99.90;;;;;;5027833;28;20042;-73
2022/08/01 00:56:27;;;;;;;12.40;3.88;;;18.00;99.90;;;;;;5016837;28;20037;-74
2022/08/01 00:58:54;;;;;;;12.95;3.90;;;18.00;99.90;;;;;;5022509;28;20057;-74
2022/08/01 01:01:21;;;;;;;11.20;3.97;;;17.90;99.90;;;;;;5026788;28;20038;-73
2022/08/01 01:03:51;;;;;;;8.63;3.40;;;17.90;99.90;;;;;;5022768;28;20091;-73
2022/08/01 01:06:38;;;;;;;9.38;3.10;;;17.90;99.90;;;;;;5025848;28;20484;-73
2022/08/01 01:09:41;;;;;;;9.07;3.65;;;17.90;99.90;;;;;;5022767;28;20219;-73
2022/08/01 01:12:28;;;;;;;12.05;3.88;;;17.80;99.90;;;;;;5027464;28;20045;-73
2022/08/01 01:15:14;;;;;;;8.65;3.83;;;17.80;99.90;;;;;;5026329;28;20283;-74
2022/08/01 01:17:42;;;;;;;10.00;2.80;;;17.80;99.90;;;;;;5009340;28;20049;-73
2022/08/01 01:20:13;;;;;;;7.82;3.10;;;17.80;99.90;;;;;;5004242;28;20038;-73
2022/08/01 01:22:58;;;;;;;8.82;3.10;;;17.70;99.90;;;;;;5003722;28;20517;-73
2022/08/01 01:25:31;;;;;;;6.60;3.08;;;17.80;99.90;;;;;;5006775;28;20402;-73
2022/08/01 01:28:15;;;;;;;5.93;2.40;;;17.70;99.90;;;;;;5006903;28;20141;-73
2022/08/01 01:30:44;;;;;;;5.97;2.22;;;17.70;99.90;;;;;;5014705;28;20052;-73
2022/08/01 01:33:12;;;;;;;9.23;3.35;;;17.70;99.90;;;;;;5022713;28;20038;-74
2022/08/01 01:35:44;;;;;;;11.30;2.78;;;17.70;99.90;;;;;;5023898;28;20048;-73
2022/08/01 01:38:20;;;;;;;7.80;2.80;;;17.70;99.90;;;;;;5025507;28;20398;-73
2022/08/01 01:40:48;;;;;;;11.52;3.28;;;17.70;99.90;;;;;;5023174;28;20090;-73
2022/08/01 01:43:15;;;;;;;13.57;3.33;;;17.70;99.90;;;;;;5020985;28;20061;-73
2022/08/01 01:45:43;;;;;;;10.65;3.63;;;17.70;99.90;;;;;;5026735;28;20091;-74
2022/08/01 01:48:12;;;;;;;13.30;3.42;;;17.60;99.90;;;;;;5026146;28;20054;-73
2022/08/01 01:50:39;;;;;;;7.90;3.30;;;17.60;99.90;;;;;;5025069;28;20045;-73
2022/08/01 01:53:06;;;;;;;12.23;3.42;;;17.60;99.90;;;;;;5023741;28;20046;-73
2022/08/01 01:55:35;;;;;;;8.88;3.22;;;17.60;99.90;;;;;;5026473;28;20136;-73
2022/08/01 01:58:01;;;;;;;11.45;3.47;;;17.60;99.90;;;;;;5021130;28;20144;-73
2022/08/01 02:00:29;;;;;;;10.20;3.33;;;17.60;99.90;;;;;;5006296;28;20132;-73
2022/08/01 02:02:56;;;;;;;21.75;4.20;;;17.50;99.90;;;;;;5025371;28;20058;-73
2022/08/01 02:05:24;;;;;;;11.90;3.65;;;17.50;99.90;;;;;;5022408;28;20037;-73
2022/08/01 02:07:53;;;;;;;18.55;3.67;;;17.50;99.90;;;;;;5023504;28;20069;-73
2022/08/01 02:10:19;;;;;;;15.73;4.03;;;17.50;99.90;;;;;;5022948;28;20116;-73
2022/08/01 02:12:47;;;;;;;14.82;3.70;;;17.50;99.90;;;;;;5026328;28;20448;-73
2022/08/01 02:15:15;;;;;;;15.38;4.40;;;17.50;99.90;;;;;;5025263;28;20047;-73
2022/08/01 02:17:44;;;;;;;11.18;3.67;;;17.50;99.90;;;;;;5024088;28;20132;-73
2022/08/01 02:20:11;;;;;;;12.40;3.50;;;17.50;99.90;;;;;;5024647;28;20814;-73
2022/08/01 02:22:49;;;;;;;13.73;4.18;;;17.50;99.90;;;;;;5020115;28;20536;-73
2022/08/01 02:25:31;;;;;;;14.40;4.10;;;17.50;99.90;;;;;;5024406;28;20398;-72
2022/08/01 02:28:07;;;;;;;18.33;3.72;;;17.40;99.90;;;;;;5026103;28;20041;-73
2022/08/01 02:30:36;;;;;;;16.88;4.97;;;17.50;99.90;;;;;;5018242;28;20034;-72
2022/08/01 02:33:16;;;;;;;11.77;3.60;;;17.40;99.90;;;;;;5021558;28;20045;-73
2022/08/01 02:35:45;;;;;;;14.77;4.32;;;17.40;99.90;;;;;;5025197;28;20037;-73
2022/08/01 02:38:13;;;;;;;12.77;3.92;;;17.40;99.90;;;;;;5025439;28;20103;-73
2022/08/01 02:40:43;;;;;;;15.15;4.07;;;17.40;99.90;;;;;;5024013;28;20045;-73
2022/08/01 02:43:10;;;;;;;10.52;4.18;;;17.40;99.90;;;;;;5021148;28;20136;-74
2022/08/01 02:45:42;;;;;;;9.55;3.60;;;17.40;99.90;;;;;;5026567;28;20037;-73
2022/08/01 02:48:11;;;;;;;17.05;3.85;;;17.40;99.90;;;;;;5022737;28;20052;-73
2022/08/01 02:50:38;;;;;;;12.00;3.63;;;17.40;99.90;;;;;;5022996;28;20045;-73
2022/08/01 02:53:09;;;;;;;15.13;4.47;;;17.30;99.90;;;;;;5022500;28;20107;-73
2022/08/01 02:55:36;;;;;;;14.80;4.07;;;17.30;99.90;;;;;;5024336;28;20076;-73
2022/08/01 02:58:03;;;;;;;14.50;3.83;;;17.30;99.90;;;;;;5024414;28;20048;-73
2022/08/01 03:00:30;;;;;;;10.32;3.65;;;17.30;99.90;;;;;;5023267;28;20045;-75
2022/08/01 03:02:57;;;;;;;17.90;4.60;;;17.30;99.90;;;;;;5023480;28;20045;-73
2022/08/01 03:05:26;;;;;;;12.85;3.97;;;17.20;99.90;;;;;;5026141;28;20485;-73
2022/08/01 03:07:54;;;;;;;14.63;3.95;;;17.20;99.90;;;;;;5023687;28;20068;-74
2022/08/01 03:10:21;;;;;;;14.98;3.63;;;17.20;99.90;;;;;;5021397;28;20523;-74
2022/08/01 03:12:48;;;;;;;13.35;3.65;;;17.20;99.90;;;;;;5024137;28;20049;-73
2022/08/01 03:15:15;;;;;;;16.27;3.83;;;17.20;99.90;;;;;;5022413;28;20092;-74
2022/08/01 03:17:43;;;;;;;14.75;3.92;;;17.20;99.90;;;;;;5023261;28;20033;-73
2022/08/01 03:20:13;;;;;;;10.57;3.20;;;17.20;99.90;;;;;;5023991;28;20124;-73
2022/08/01 03:22:40;;;;;;;13.15;3.88;;;17.10;99.90;;;;;;5023981;28;20045;-73
2022/08/01 03:25:07;;;;;;;12.20;3.53;;;17.10;99.90;;;;;;5021510;28;20045;-73
2022/08/01 03:27:34;;;;;;;11.15;3.50;;;17.10;99.90;;;;;;5029094;28;20473;-74
2022/08/01 03:30:04;;;;;;;17.75;3.90;;;17.10;99.90;;;;;;5027347;28;20464;-74
2022/08/01 03:32:30;;;;;;;19.30;4.00;;;17.20;99.90;;;;;;5012333;28;20055;-74
2022/08/01 03:34:57;;;;;;;13.95;4.18;;;17.10;99.90;;;;;;5015793;28;20117;-74
2022/08/01 03:37:29;;;;;;;19.23;3.85;;;17.10;99.90;;;;;;5009012;28;20049;-73
2022/08/01 03:40:07;;;;;;;13.40;3.78;;;17.10;99.90;;;;;;5013554;28;20061;-73
2022/08/01 03:42:38;;;;;;;14.30;4.07;;;17.10;99.90;;;;;;5007852;28;20066;-73
2022/08/01 03:45:10;;;;;;;13.50;3.60;;;17.10;99.90;;;;;;5024681;28;20571;-73
2022/08/01 03:47:37;;;;;;;18.63;4.22;;;17.10;99.90;;;;;;5031636;28;20072;-74
2022/08/01 03:50:06;;;;;;;15.25;3.75;;;17.10;99.90;;;;;;5020137;28;20041;-73
2022/08/01 03:52:34;;;;;;;15.75;4.15;;;17.10;99.90;;;;;;5028067;28;20136;-73
2022/08/01 03:55:04;;;;;;;18.05;3.75;;;17.00;99.90;;;;;;5028121;28;20056;-73
2022/08/01 03:57:31;;;;;;;15.98;4.10;;;17.00;99.90;;;;;;5011715;28;20052;-73
2022/08/01 03:59:58;;;;;;;14.43;3.25;;;17.00;99.90;;;;;;5024231;28;20038;-74
2022/08/01 04:02:26;;;;;;;16.50;3.53;;;16.90;99.90;;;;;;5023209;28;20505;-73
2022/08/01 04:04:52;;;;;;;18.10;3.85;;;16.90;99.90;;;;;;5029277;28;20583;-72
2022/08/01 04:07:26;;;;;;;19.42;4.13;;;16.90;99.90;;;;;;5022766;28;20099;-73
2022/08/01 04:09:52;;;;;;;23.60;4.40;;;16.90;99.90;;;;;;5026626;28;20579;-73
2022/08/01 04:12:18;;;;;;;15.43;3.63;;;16.90;99.90;;;;;;5026380;28;20076;-73
2022/08/01 04:14:44;;;;;;;14.93;4.13;;;16.90;99.90;;;;;;5027423;28;20045;-73
2022/08/01 04:17:09;;;;;;;24.02;4.25;;;16.90;99.90;;;;;;5026149;28;20041;-73
2022/08/01 04:19:35;;;;;;;15.95;3.72;;;16.90;99.90;;;;;;5028060;28;20044;-73
2022/08/01 04:22:02;;;;;;;13.35;4.00;;;16.90;99.90;;;;;;5024277;28;20045;-73
2022/08/01 04:24:30;;;;;;;19.48;4.82;;;16.80;99.90;;;;;;5025198;28;20389;-73
2022/08/01 04:26:59;;;;;;;13.80;3.40;;;16.80;99.90;;;;;;5028602;28;20064;-73
2022/08/01 04:29:27;;;;;;;17.55;3.30;;;16.80;99.90;;;;;;5023830;28;20518;-73
2022/08/01 04:31:55;;;;;;;14.88;3.38;;;16.90;99.90;;;;;;5029401;28;20045;-73
2022/08/01 04:34:24;;;;;;;17.95;3.80;;;16.80;99.90;;;;;;5025817;28;20042;-74
2022/08/01 04:36:54;;;;;;;17.95;3.70;;;16.80;99.90;;;;;;5027444;28;20405;-73
2022/08/01 04:39:23;;;;;;;15.18;3.00;;;16.90;99.90;;;;;;5024425;28;20038;-73
2022/08/01 04:41:50;;;;;;;13.55;3.70;;;16.80;99.90;;;;;;5025952;28;20049;-73
2022/08/01 04:44:16;;;;;;;12.23;2.90;;;16.80;99.90;;;;;;5026781;28;20077;-73
2022/08/01 04:46:43;;;;;;;14.32;2.88;;;16.80;99.90;;;;;;5028783;28;20508;-74
2022/08/01 04:49:11;;;;;;;14.93;3.72;;;16.80;99.90;;;;;;5023925;28;20100;-73
2022/08/01 04:51:49;;;;;;;11.90;2.97;;;16.80;99.90;;;;;;5023619;28;20038;-73
2022/08/01 04:54:14;;;;;;;19.30;3.60;;;16.80;99.90;;;;;;5027980;28;20049;-73
2022/08/01 04:56:41;;;;;;;18.50;3.70;;;16.80;99.90;;;;;;5023650;28;20051;-73
2022/08/01 05:01:51;;;;;;;16.65;2.72;;;16.90;99.90;;;;;;5014121;28;20178;-73
2022/08/01 05:04:17;;;;;;;17.75;3.33;;;16.90;99.90;;;;;;5022078;28;20042;-73
2022/08/01 05:06:42;;;;;;;20.52;3.97;;;16.90;99.90;;;;;;5029142;28;20041;-73
2022/08/01 05:09:08;;;;;;;13.57;3.80;;;16.90;99.90;;;;;;5025753;28;20087;-73
2022/08/01 05:11:33;;;;;;;13.75;3.42;;;16.80;99.90;;;;;;5027335;28;20068;-73
2022/08/01 05:14:00;;;;;;;16.55;3.60;;;16.90;99.90;;;;;;5026256;28;20076;-73
2022/08/01 05:16:26;;;;;;;18.00;5.22;;;16.80;99.90;;;;;;5026020;28;20045;-73
2022/08/01 05:18:51;;;;;;;23.85;3.67;;;16.90;99.90;;;;;;5027277;28;20033;-73
2022/08/01 05:21:17;;;;;;;15.20;3.67;;;16.90;99.90;;;;;;5028323;28;20046;-73
2022/08/01 05:23:43;;;;;;;16.33;3.45;;;16.90;99.90;;;;;;5025257;28;20030;-73
2022/08/01 05:26:10;;;;;;;17.80;3.28;;;16.90;99.90;;;;;;5026572;28;20057;-72
2022/08/01 05:28:35;;;;;;;14.43;3.03;;;16.90;99.90;;;;;;5021976;28;20038;-73
2022/08/01 05:31:01;;;;;;;21.15;4.13;;;16.90;99.90;;;;;;5025343;28;20052;-73
2022/08/01 05:33:26;;;;;;;16.13;3.50;;;16.90;99.90;;;;;;5026164;28;20037;-73
2022/08/01 05:35:52;;;;;;;19.08;3.50;;;16.90;99.90;;;;;;5022868;28;20045;-73
2022/08/01 05:38:18;;;;;;;16.27;4.00;;;16.90;99.90;;;;;;5025990;28;20531;-73
2022/08/01 05:40:43;;;;;;;18.23;3.50;;;16.90;99.90;;;;;;5022605;28;20041;-73
2022/08/01 05:43:09;;;;;;;24.63;4.80;;;16.90;99.90;;;;;;5027183;28;20041;-73
2022/08/01 05:45:34;;;;;;;14.50;3.13;;;17.00;99.90;;;;;;5024453;28;20146;-73
2022/08/01 05:48:00;;;;;;;20.73;4.40;;;17.00;99.90;;;;;;5026949;28;20493;-73
2022/08/01 05:50:26;;;;;;;15.20;3.55;;;17.10;99.90;;;;;;5024222;28;20051;-74
2022/08/01 05:52:52;;;;;;;16.23;3.80;;;17.10;99.90;;;;;;5025758;28;20150;-73
2022/08/01 05:55:17;;;;;;;15.98;3.65;;;17.10;99.90;;;;;;5025732;28;20409;-73
2022/08/01 05:57:43;;;;;;;24.42;4.45;;;17.20;99.90;;;;;;5023765;28;20037;-73
2022/08/01 06:00:09;;;;;;;19.40;3.45;;;17.20;99.90;;;;;;5020871;28;20132;-72
2022/08/01 06:02:41;;;;;;;16.00;3.00;;;17.20;99.90;;;;;;5029463;28;20061;-73
2022/08/01 06:05:07;;;;;;;16.02;3.67;;;17.30;99.90;;;;;;5025366;28;20041;-73
2022/08/01 06:07:32;;;;;;;14.25;3.28;;;17.30;99.90;;;;;;5022784;28;20045;-73
2022/08/01 06:09:58;;;;;;;17.02;4.32;;;17.40;99.90;;;;;;5023534;28;20540;-73
2022/08/01 06:12:24;;;;;;;16.83;3.50;;;17.50;99.90;;;;;;5027312;28;20040;-73
2022/08/01 06:14:49;;;;;;;17.00;4.07;;;17.50;99.90;;;;;;5022186;28;20045;-73
2022/08/01 06:17:15;;;;;;;22.77;3.65;;;17.60;99.90;;;;;;5022962;28;20466;-73
2022/08/01 06:19:40;;;;;;;15.93;3.08;;;17.70;99.90;;;;;;5022607;28;20079;-73
2022/08/01 06:22:06;;;;;;;16.02;2.80;;;17.70;99.90;;;;;;5025212;28;20053;-72
2022/08/01 06:24:32;;;;;;;19.50;3.42;;;17.70;99.90;;;;;;5023770;28;20042;-73
2022/08/01 06:26:57;;;;;;;12.40;3.10;;;17.70;99.90;;;;;;5025079;28;20048;-72
2022/08/01 06:29:23;;;;;;;15.05;3.05;;;17.60;99.90;;;;;;5012352;28;20056;-73
2022/08/01 06:31:48;;;;;;;20.65;3.30;;;17.70;99.90;;;;;;5025395;28;20051;-73
2022/08/01 06:34:15;;;;;;;11.98;2.67;;;17.80;99.90;;;;;;5021818;28;20103;-72
2022/08/01 06:36:41;;;;;;;9.30;2.80;;;18.00;99.90;;;;;;5026769;28;20053;-72
2022/08/01 06:39:06;;;;;;;13.45;2.72;;;18.00;99.90;;;;;;5024712;28;20053;-72
2022/08/01 06:41:32;;;;;;;18.15;2.90;;;18.00;99.90;;;;;;5025314;28;20056;-72
2022/08/01 06:43:59;;;;;;;16.42;3.28;;;18.00;99.90;;;;;;5023730;28;20451;-73
2022/08/01 06:46:25;;;;;;;11.63;2.72;;;18.00;99.90;;;;;;5023068;28;20132;-73
2022/08/01 06:48:51;;;;;;;10.35;2.30;;;18.20;99.90;;;;;;5024063;28;20512;-74
2022/08/01 06:51:19;;;;;;;11.15;2.42;;;18.40;99.90;;;;;;5022579;28;20080;-72
2022/08/01 06:53:45;;;;;;;13.18;3.25;;;18.60;99.90;;;;;;5023228;28;20092;-73
2022/08/01 06:56:11;;;;;;;16.23;2.85;;;18.80;99.90;;;;;;5026768;28;20073;-72
2022/08/01 06:58:37;;;;;;;13.00;3.17;;;18.90;99.90;;;;;;5023229;28;20057;-73
2022/08/01 07:01:05;;;;;;;15.05;2.88;;;19.00;99.90;;;;;;5017632;28;20036;-73
2022/08/01 07:03:31;;;;;;;13.98;2.80;;;19.10;99.90;;;;;;5019891;28;20041;-73
2022/08/01 07:05:57;;;;;;;11.05;2.67;;;19.20;99.90;;;;;;5025638;28;20087;-73
2022/08/01 07:08:23;;;;;;;13.55;3.92;;;19.30;99.90;;;;;;5023529;28;20125;-73
2022/08/01 07:10:49;;;;;;;13.95;3.30;;;19.40;99.90;;;;;;5025609;28;20041;-73
2022/08/01 07:13:20;;;;;;;14.65;2.88;;;19.50;99.90;;;;;;5025120;28;20057;-73
2022/08/01 07:15:46;;;;;;;14.07;2.90;;;19.50;99.90;;;;;;5022914;28;20125;-73
2022/08/01 07:18:12;;;;;;;17.35;3.55;;;19.60;99.90;;;;;;5020463;28;20100;-74
2022/08/01 07:20:38;;;;;;;14.20;2.15;;;19.40;99.90;;;;;;5017070;28;20045;-73
2022/08/01 07:23:04;;;;;;;13.25;2.90;;;19.40;99.90;;;;;;5022762;28;20046;-73
2022/08/01 07:25:30;;;;;;;16.83;2.55;;;19.30;99.90;;;;;;5025490;28;20052;-73
2022/08/01 07:27:55;;;;;;;12.50;2.55;;;19.40;99.90;;;;;;5025923;28;20124;-73
2022/08/01 07:30:21;;;;;;;13.55;3.08;;;19.60;99.90;;;;;;5023202;28;20049;-73
2022/08/01 07:32:47;;;;;;;10.82;2.50;;;19.80;99.90;;;;;;5024984;28;20056;-73
2022/08/01 07:35:13;;;;;;;16.27;2.78;;;19.90;99.90;;;;;;5023798;28;20068;-73
2022/08/01 07:37:39;;;;;;;11.63;2.42;;;20.10;99.90;;;;;;5025703;28;20038;-73
2022/08/01 07:40:05;;;;;;;13.02;2.33;;;20.20;99.90;;;;;;5023499;28;20045;-73
2022/08/01 07:42:31;;;;;;;10.52;2.22;;;20.30;99.90;;;;;;5022066;28;20037;-74
2022/08/01 07:44:57;;;;;;;9.63;2.08;;;20.40;99.90;;;;;;5022914;28;20037;-74
2022/08/01 07:47:26;;;;;;;12.18;2.42;;;20.50;99.90;;;;;;5025699;28;20048;-75
2022/08/01 07:49:58;;;;;;;14.68;2.55;;;20.50;99.90;;;;;;5020489;28;20048;-74
2022/08/01 07:52:24;;;;;;;8.82;2.40;;;20.70;99.90;;;;;;5023934;28;20040;-74
2022/08/01 07:54:50;;;;;;;13.73;2.67;;;20.90;99.90;;;;;;5021983;28;20050;-73
2022/08/01 07:57:15;;;;;;;10.52;2.42;;;21.00;99.90;;;;;;5020509;28;20481;-73
2022/08/01 07:59:41;;;;;;;13.48;2.50;;;21.10;99.90;;;;;;5020570;28;20041;-74
2022/08/01 08:02:06;;;;;;;12.60;2.38;;;21.30;99.90;;;;;;5024499;28;20049;-74
2022/08/01 08:04:32;;;;;;;10.68;2.58;;;21.50;99.90;;;;;;5020448;28;20052;-75
2022/08/01 08:06:58;;;;;;;11.63;2.40;;;21.50;99.90;;;;;;5020341;28;20065;-73
2022/08/01 08:09:23;;;;;;;11.50;2.50;;;21.30;99.90;;;;;;5017613;28;20064;-74
2022/08/01 08:11:49;;;;;;;9.98;2.47;;;21.10;99.90;;;;;;5024489;28;20045;-74
2022/08/01 08:14:16;;;;;;;12.77;2.60;;;20.90;99.90;;;;;;5018212;28;20100;-74
2022/08/01 08:16:42;;;;;;;11.07;2.85;;;21.00;99.90;;;;;;5026076;28;20057;-75
2022/08/01 08:19:08;;;;;;;11.23;2.75;;;21.10;99.90;;;;;;5026523;28;20316;-74
2022/08/01 08:21:34;;;;;;;7.50;2.38;;;21.30;99.90;;;;;;5029655;28;20127;-76
2022/08/01 08:26:44;;;;;;;9.75;2.22;;;21.50;99.90;;;;;;5014287;28;20041;-75
2022/08/01 08:29:09;;;;;;;11.32;2.30;;;21.60;99.90;;;;;;5026978;28;20099;-75
2022/08/01 08:31:35;;;;;;;11.32;2.22;;;21.70;99.90;;;;;;5026485;28;20048;-74
2022/08/01 08:34:01;;;;;;;10.15;2.22;;;21.70;99.90;;;;;;5026227;28;20065;-74
2022/08/01 08:36:27;;;;;;;11.68;1.98;;;21.70;99.90;;;;;;5027314;28;20042;-73
2022/08/01 08:38:52;;;;;;;9.73;2.13;;;21.60;99.90;;;;;;5025107;28;20042;-74
2022/08/01 08:41:18;;;;;;;12.77;2.20;;;21.60;99.90;;;;;;5026093;28;20404;-73
2022/08/01 08:43:44;;;;;;;7.90;1.98;;;21.60;99.90;;;;;;5025789;28;20053;-73
2022/08/01 08:46:12;;;;;;;8.73;2.15;;;21.60;99.90;;;;;;5019881;28;20509;-74
2022/08/01 08:48:40;;;;;;;10.55;2.10;;;21.60;99.90;;;;;;5017960;28;20042;-73
2022/08/01 08:51:08;;;;;;;9.80;2.30;;;21.60;99.90;;;;;;5019999;28;20045;-73
2022/08/01 08:53:35;;;;;;;10.30;2.55;;;21.70;99.90;;;;;;5024555;28;20042;-73
2022/08/01 08:56:03;;;;;;;11.38;2.13;;;21.70;99.90;;;;;;5023772;28;20051;-72
2022/08/01 08:58:32;;;;;;;9.57;2.25;;;21.80;99.90;;;;;;5022129;28;21509;-73
2022/08/01 09:00:58;;;;;;;11.20;2.30;;;21.80;99.90;;;;;;5021770;28;20042;-73
2022/08/01 09:03:24;;;;;;;8.32;2.00;;;21.90;99.90;;;;;;5005693;28;20091;-73
2022/08/01 09:05:50;;;;;;;11.75;1.95;;;21.80;99.90;;;;;;5019846;28;20041;-73
2022/08/01 09:08:15;;;;;;;10.60;2.03;;;21.80;99.90;;;;;;5022165;28;20068;-73
2022/08/01 09:10:41;;;;;;;10.07;1.70;;;22.00;99.90;;;;;;5024144;28;20068;-73
2022/08/01 09:13:14;;;;;;;7.80;1.70;;;22.20;99.90;;;;;;5027960;28;20068;-73
2022/08/01 09:15:50;;;;;;;9.13;2.20;;;22.30;99.90;;;;;;5024459;28;20045;-73
2022/08/01 09:18:48;;;;;;;5.25;1.38;;;22.40;99.90;;;;;;5020732;28;20584;-73
2022/08/01 09:21:16;;;;;;;12.75;1.88;;;22.50;99.90;;;;;;5006487;28;20542;-73
2022/08/01 09:23:48;;;;;;;14.65;2.40;;;22.50;99.90;;;;;;5037071;28;20064;-73
2022/08/01 09:26:16;;;;;;;11.18;2.38;;;22.50;99.90;;;;;;5027900;28;20037;-75
2022/08/01 09:28:43;;;;;;;8.85;1.80;;;22.50;99.90;;;;;;5015155;28;20053;-73
2022/08/01 09:31:11;;;;;;;9.20;1.88;;;22.20;99.90;;;;;;5018632;28;20107;-73
2022/08/01 09:34:07;;;;;;;10.02;1.63;;;22.00;99.90;;;;;;5025028;28;20560;-73
2022/08/01 09:36:53;;;;;;;9.82;1.83;;;22.00;99.90;;;;;;5008691;28;20068;-73
2022/08/01 09:39:20;;;;;;;9.95;2.38;;;22.20;99.90;;;;;;5016628;28;20045;-72
2022/08/01 09:41:47;;;;;;;6.53;2.25;;;22.40;99.90;;;;;;5028447;28;20073;-73
2022/08/01 09:44:13;;;;;;;14.05;2.13;;;22.50;99.90;;;;;;5014307;28;20041;-73
2022/08/01 09:46:49;;;;;;;9.55;2.22;;;22.40;99.90;;;;;;5018876;28;20060;-73
2022/08/01 09:49:31;;;;;;;10.32;2.17;;;22.30;99.90;;;;;;5020625;28;20099;-73
2022/08/01 09:51:57;;;;;;;9.95;2.08;;;22.40;99.90;;;;;;5028048;28;20106;-73
2022/08/01 09:54:33;;;;;;;9.27;2.28;;;22.50;99.90;;;;;;5026812;28;20684;-73
2022/08/01 09:57:13;;;;;;;9.57;1.67;;;22.60;99.90;;;;;;5023661;28;20045;-73
2022/08/01 09:59:42;;;;;;;8.93;2.00;;;22.80;99.90;;;;;;5010433;28;20513;-73
2022/08/01 10:02:28;;;;;;;5.63;1.55;;;22.90;99.90;;;;;;5026390;28;20053;-73
2022/08/01 10:04:54;;;;;;;7.63;1.73;;;23.00;99.90;;;;;;5025942;28;20486;-73
2022/08/01 10:07:21;;;;;;;9.63;1.75;;;22.90;99.90;;;;;;5026433;28;20051;-74
2022/08/01 10:09:48;;;;;;;8.23;1.63;;;22.90;99.90;;;;;;5025720;28;20052;-73
2022/08/01 10:12:19;;;;;;;8.23;1.70;;;23.00;99.90;;;;;;5023581;28;20541;-72
2022/08/01 10:14:49;;;;;;;9.13;1.83;;;23.00;99.90;;;;;;5027772;28;20506;-73
2022/08/01 10:17:16;;;;;;;7.25;1.65;;;23.10;99.90;;;;;;5024901;28;20502;-73
2022/08/01 10:19:43;;;;;;;9.32;1.95;;;23.20;99.40;;;;;;5025606;28;20084;-73
2022/08/01 10:22:16;;;;;;;6.93;1.50;;;23.20;99.90;;;;;;5026732;28;20468;-73
2022/08/01 10:24:44;;;;;;;6.85;2.00;;;23.20;99.10;;;;;;5027218;28;20047;-73
2022/08/01 10:27:10;;;;;;;10.38;2.20;;;23.10;99.90;;;;;;5026136;28;20522;-72
2022/08/01 10:29:42;;;;;;;8.73;1.70;;;23.10;99.90;;;;;;5025301;28;20156;-72
2022/08/01 10:32:09;;;;;;;5.93;1.40;;;23.20;99.10;;;;;;5026498;28;20041;-73
2022/08/01 10:34:36;;;;;;;8.20;1.65;;;23.30;99.30;;;;;;5025478;28;20111;-73
2022/08/01 10:37:03;;;;;;;8.77;1.70;;;23.40;99.70;;;;;;5027126;28;20141;-72
2022/08/01 10:39:31;;;;;;;7.22;1.88;;;23.20;99.90;;;;;;5014449;28;20042;-73
2022/08/01 10:41:57;;;;;;;7.70;1.73;;;23.10;99.60;;;;;;5019462;28;20091;-73
2022/08/01 10:44:25;;;;;;;6.65;1.50;;;23.00;99.90;;;;;;5024076;28;20057;-72
2022/08/01 10:46:57;;;;;;;8.15;1.40;;;23.00;99.70;;;;;;5024631;28;20045;-73
2022/08/01 10:49:28;;;;;;;4.95;1.40;;;23.10;99.10;;;;;;5022691;28;20044;-73
2022/08/01 10:51:54;;;;;;;8.57;1.75;;;23.20;99.50;;;;;;5025705;28;20401;-72
2022/08/01 10:54:24;;;;;;;7.72;1.75;;;23.20;99.50;;;;;;5025300;28;20262;-73
2022/08/01 10:56:51;;;;;;;8.38;1.85;;;23.00;97.80;;;;;;5023545;28;20045;-73
2022/08/01 10:59:21;;;;;;;10.35;2.00;;;22.90;98.60;;;;;;5021580;28;20059;-73
2022/08/01 11:02:05;;;;;;;5.80;1.73;;;22.70;96.80;;;;;;5014966;28;20041;-72
2022/08/01 11:04:41;;;;;;;7.78;1.70;;;22.60;97.40;;;;;;5007385;28;20337;-72
2022/08/01 11:07:13;;;;;;;5.55;1.40;;;22.70;97.80;;;;;;5022285;28;20112;-73
2022/08/01 11:09:47;;;;;;;7.25;1.50;;;22.70;98.10;;;;;;5020235;28;20497;-73
2022/08/01 11:12:15;;;;;;;6.47;1.55;;;22.80;98.60;;;;;;5022939;28;20050;-72
2022/08/01 11:15:04;;;;;;;4.30;1.52;;;22.80;97.00;;;;;;5020522;28;20068;-72
2022/08/01 11:17:35;;;;;;;6.80;1.50;;;22.90;98.20;;;;;;5006437;28;20463;-73
2022/08/01 11:20:30;;;;;;;5.63;1.30;;;22.80;97.10;;;;;;5024240;28;20033;-73
2022/08/01 11:22:58;;;;;;;7.28;1.70;;;22.80;97.50;;;;;;5012846;28;20042;-72
2022/08/01 11:25:25;;;;;;;9.55;1.77;;;22.80;95.70;;;;;;5013912;28;20132;-73
2022/08/01 11:28:16;;;;;;;7.80;1.73;;;22.80;96.90;;;;;;5023759;28;20037;-73
2022/08/01 11:30:46;;;;;;;7.38;1.58;;;22.80;96.20;;;;;;5012256;28;20052;-73
2022/08/01 11:33:13;;;;;;;7.75;1.70;;;22.80;96.90;;;;;;5003449;28;20045;-73
2022/08/01 11:36:19;;;;;;;7.82;1.83;;;22.90;97.20;;;;;;5017344;28;20049;-73
2022/08/01 11:38:57;;;;;;;5.93;1.52;;;23.10;95.90;;;;;;4991667;28;20053;-73
2022/08/01 11:41:31;;;;;;;6.35;1.50;;;23.10;94.60;;;;;;5016922;28;20128;-73
2022/08/01 11:44:03;;;;;;;9.50;1.38;;;23.20;97.00;;;;;;5023594;28;20663;-73
2022/08/01 11:47:02;;;;;;;7.03;2.08;;;23.30;97.00;;;;;;5004214;28;20041;-74
2022/08/01 11:49:36;;;;;;;7.85;1.58;;;23.20;96.50;;;;;;5021522;28;20049;-72
2022/08/01 11:52:09;;;;;;;6.88;1.58;;;23.10;96.20;;;;;;5025128;28;20050;-72
2022/08/01 11:54:38;;;;;;;4.00;1.40;;;23.10;95.20;;;;;;5023438;28;20068;-72
2022/08/01 11:57:13;;;;;;;4.95;1.20;;;23.10;97.40;;;;;;5026514;28;20037;-72
2022/08/01 11:59:45;;;;;;;5.70;1.50;;;23.00;96.30;;;;;;5022611;28;20475;-72
2022/08/01 12:02:33;;;;;;;6.10;1.30;;;23.20;96.30;;;;;;5028211;28;20033;-72
2022/08/01 12:05:02;;;;;;;8.98;1.70;;;23.30;95.10;;;;;;5027058;28;20161;-73
2022/08/01 12:07:30;;;;;;;6.65;1.40;;;23.50;95.80;;;;;;5028687;28;20513;-72
2022/08/01 12:10:10;;;;;;;5.57;1.70;;;23.50;94.90;;;;;;5026612;28;20045;-72
2022/08/01 12:12:37;;;;;;;6.55;1.70;;;23.50;95.30;;;;;;5023514;28;20100;-72
2022/08/01 12:15:07;;;;;;;8.52;2.22;;;23.40;94.60;;;;;;5026812;28;20518;-71
2022/08/01 12:17:36;;;;;;;6.00;1.60;;;23.30;95.70;;;;;;5023235;28;20038;-73
2022/08/01 12:20:05;;;;;;;6.18;1.33;;;23.20;94.10;;;;;;5027555;28;20052;-72
2022/08/01 12:22:30;;;;;;;7.40;1.40;;;23.20;95.30;;;;;;5028136;28;20388;-73
2022/08/01 12:25:04;;;;;;;9.73;1.60;;;23.20;96.30;;;;;;5025045;28;20164;-72
2022/08/01 12:27:30;;;;;;;5.60;1.70;;;23.30;95.40;;;;;;5008811;28;20052;-73
2022/08/01 12:29:59;;;;;;;4.88;1.27;;;23.30;95.40;;;;;;5027190;28;20037;-73
2022/08/01 12:32:33;;;;;;;5.80;1.40;;;23.40;95.20;;;;;;5021663;28;20469;-73
2022/08/01 12:35:06;;;;;;;7.07;1.80;;;23.30;94.60;;;;;;5025628;28;20188;-72
2022/08/01 12:37:39;;;;;;;9.70;1.63;;;23.30;94.80;;;;;;5012400;28;20103;-73
2022/08/01 12:40:12;;;;;;;7.57;1.50;;;23.30;95.60;;;;;;5025832;28;20033;-73
2022/08/01 12:42:42;;;;;;;4.20;1.00;;;23.30;94.90;;;;;;5032673;28;20054;-72
2022/08/01 12:45:09;;;;;;;6.03;1.65;;;23.30;94.90;;;;;;5029557;28;20049;-72
2022/08/01 12:47:38;;;;;;;6.68;1.40;;;23.30;96.00;;;;;;5029831;28;20048;-73
2022/08/01 12:50:25;;;;;;;5.80;1.73;;;23.40;95.80;;;;;;5026889;28;20634;-72
2022/08/01 12:52:51;;;;;;;7.22;1.33;;;23.30;96.00;;;;;;5024603;28;20045;-72
2022/08/01 12:55:24;;;;;;;7.45;1.42;;;23.30;95.50;;;;;;5025827;28;20102;-72